sensor_id;sensor_type;location;lat;lon;timestamp;P1;durP1;ratioP1;P2;durP2;ratioP2
61250;SDS011;47126;47.508;8.590;2023-03-04T00:00:07;80.05;;;30.88;;
61250;SDS011;47126;47.508;8.590;2023-03-04T00:02:34;81.45;;;31.60;;
61250;SDS011;47126;47.508;8.590;2023-03-04T00:05:00;80.30;;;30.85;;
61250;SDS011;47126;47.508;8.590;2023-03-04T00:07:27;75.60;;;31.85;;
61250;SDS011;47126;47.508;8.590;2023-03-04T00:09:53;87.82;;;32.63;;
61250;SDS011;47126;47.508;8.590;2023-03-04T00:12:19;86.47;;;30.58;;
61250;SDS011;47126;47.508;8.590;2023-03-04T00:14:45;84.90;;;32.42;;
61250;SDS011;47126;47.508;8.590;2023-03-04T00:17:11;89.53;;;34.17;;
61250;SDS011;47126;47.508;8.590;2023-03-04T00:19:37;85.32;;;32.45;;
61250;SDS011;47126;47.508;8.590;2023-03-04T00:22:03;87.95;;;33.85;;
61250;SDS011;47126;47.508;8.590;2023-03-04T00:24:30;88.32;;;32.28;;
61250;SDS011;47126;47.508;8.590;2023-03-04T00:26:56;91.28;;;33.38;;
61250;SDS011;47126;47.508;8.590;2023-03-04T00:29:22;92.47;;;33.85;;
61250;SDS011;47126;47.508;8.590;2023-03-04T00:31:48;103.78;;;36.00;;
61250;SDS011;47126;47.508;8.590;2023-03-04T00:34:14;97.72;;;36.50;;
61250;SDS011;47126;47.508;8.590;2023-03-04T00:36:40;94.35;;;32.85;;
61250;SDS011;47126;47.508;8.590;2023-03-04T00:39:08;89.43;;;32.22;;
61250;SDS011;47126;47.508;8.590;2023-03-04T00:41:34;92.40;;;32.47;;
61250;SDS011;47126;47.508;8.590;2023-03-04T00:44:00;85.78;;;31.70;;
61250;SDS011;47126;47.508;8.590;2023-03-04T00:46:26;81.50;;;31.65;;
61250;SDS011;47126;47.508;8.590;2023-03-04T00:48:52;92.82;;;31.83;;
61250;SDS011;47126;47.508;8.590;2023-03-04T00:51:18;79.10;;;29.92;;
61250;SDS011;47126;47.508;8.590;2023-03-04T00:53:44;85.35;;;31.38;;
61250;SDS011;47126;47.508;8.590;2023-03-04T00:56:11;82.38;;;30.52;;
61250;SDS011;47126;47.508;8.590;2023-03-04T00:58:37;88.75;;;32.70;;
61250;SDS011;47126;47.508;8.590;2023-03-04T01:01:04;87.07;;;32.13;;
61250;SDS011;47126;47.508;8.590;2023-03-04T01:03:30;93.22;;;34.67;;
61250;SDS011;47126;47.508;8.590;2023-03-04T01:05:57;100.80;;;33.88;;
61250;SDS011;47126;47.508;8.590;2023-03-04T01:08:23;97.35;;;34.38;;
61250;SDS011;47126;47.508;8.590;2023-03-04T01:10:49;100.85;;;35.20;;
61250;SDS011;47126;47.508;8.590;2023-03-04T01:13:15;92.32;;;31.77;;
61250;SDS011;47126;47.508;8.590;2023-03-04T01:15:41;88.40;;;31.00;;
61250;SDS011;47126;47.508;8.590;2023-03-04T01:18:07;83.07;;;30.50;;
61250;SDS011;47126;47.508;8.590;2023-03-04T01:20:33;107.10;;;34.28;;
61250;SDS011;47126;47.508;8.590;2023-03-04T01:22:59;90.45;;;32.13;;
61250;SDS011;47126;47.508;8.590;2023-03-04T01:25:25;88.47;;;32.50;;
61250;SDS011;47126;47.508;8.590;2023-03-04T01:27:51;93.15;;;33.67;;
61250;SDS011;47126;47.508;8.590;2023-03-04T01:30:17;95.45;;;33.35;;
61250;SDS011;47126;47.508;8.590;2023-03-04T01:32:43;102.60;;;34.03;;
61250;SDS011;47126;47.508;8.590;2023-03-04T01:35:09;99.00;;;35.05;;
61250;SDS011;47126;47.508;8.590;2023-03-04T01:37:35;97.72;;;35.17;;
61250;SDS011;47126;47.508;8.590;2023-03-04T01:40:01;96.45;;;33.63;;
61250;SDS011;47126;47.508;8.590;2023-03-04T01:42:29;98.63;;;33.97;;
61250;SDS011;47126;47.508;8.590;2023-03-04T01:44:56;112.18;;;35.70;;
61250;SDS011;47126;47.508;8.590;2023-03-04T01:47:23;97.00;;;35.17;;
61250;SDS011;47126;47.508;8.590;2023-03-04T01:49:52;93.45;;;32.97;;
61250;SDS011;47126;47.508;8.590;2023-03-04T01:52:18;86.25;;;31.17;;
61250;SDS011;47126;47.508;8.590;2023-03-04T01:54:44;91.85;;;33.53;;
61250;SDS011;47126;47.508;8.590;2023-03-04T01:57:14;91.55;;;33.28;;
61250;SDS011;47126;47.508;8.590;2023-03-04T01:59:41;101.82;;;33.72;;
61250;SDS011;47126;47.508;8.590;2023-03-04T02:02:07;100.40;;;33.92;;
61250;SDS011;47126;47.508;8.590;2023-03-04T02:04:33;92.38;;;33.95;;
61250;SDS011;47126;47.508;8.590;2023-03-04T02:07:00;91.25;;;32.80;;
61250;SDS011;47126;47.508;8.590;2023-03-04T02:09:27;97.53;;;33.25;;
61250;SDS011;47126;47.508;8.590;2023-03-04T02:11:53;102.78;;;35.67;;
61250;SDS011;47126;47.508;8.590;2023-03-04T02:14:19;92.00;;;32.65;;
61250;SDS011;47126;47.508;8.590;2023-03-04T02:16:47;104.07;;;36.08;;
61250;SDS011;47126;47.508;8.590;2023-03-04T02:21:58;102.60;;;35.67;;
61250;SDS011;47126;47.508;8.590;2023-03-04T02:24:44;114.03;;;38.35;;
61250;SDS011;47126;47.508;8.590;2023-03-04T02:27:12;103.63;;;36.00;;
61250;SDS011;47126;47.508;8.590;2023-03-04T02:29:38;97.25;;;35.10;;
61250;SDS011;47126;47.508;8.590;2023-03-04T02:32:04;103.13;;;34.38;;
61250;SDS011;47126;47.508;8.590;2023-03-04T02:34:31;93.53;;;33.35;;
61250;SDS011;47126;47.508;8.590;2023-03-04T02:36:58;98.53;;;33.63;;
61250;SDS011;47126;47.508;8.590;2023-03-04T02:41:51;99.95;;;36.13;;
61250;SDS011;47126;47.508;8.590;2023-03-04T02:44:19;115.10;;;36.55;;
61250;SDS011;47126;47.508;8.590;2023-03-04T02:46:45;104.60;;;35.75;;
61250;SDS011;47126;47.508;8.590;2023-03-04T02:49:11;123.13;;;39.37;;
61250;SDS011;47126;47.508;8.590;2023-03-04T02:51:37;121.72;;;38.42;;
61250;SDS011;47126;47.508;8.590;2023-03-04T02:54:03;106.55;;;35.97;;
61250;SDS011;47126;47.508;8.590;2023-03-04T02:56:30;120.40;;;38.53;;
61250;SDS011;47126;47.508;8.590;2023-03-04T02:58:56;113.68;;;36.55;;
61250;SDS011;47126;47.508;8.590;2023-03-04T03:01:22;116.00;;;36.65;;
61250;SDS011;47126;47.508;8.590;2023-03-04T03:03:48;108.43;;;37.70;;
61250;SDS011;47126;47.508;8.590;2023-03-04T03:06:14;91.85;;;33.92;;
61250;SDS011;47126;47.508;8.590;2023-03-04T03:08:40;100.88;;;35.92;;
61250;SDS011;47126;47.508;8.590;2023-03-04T03:11:06;99.80;;;33.63;;
61250;SDS011;47126;47.508;8.590;2023-03-04T03:13:33;94.53;;;33.20;;
61250;SDS011;47126;47.508;8.590;2023-03-04T03:15:59;101.55;;;36.55;;
61250;SDS011;47126;47.508;8.590;2023-03-04T03:18:25;102.22;;;35.35;;
61250;SDS011;47126;47.508;8.590;2023-03-04T03:20:51;102.07;;;31.88;;
61250;SDS011;47126;47.508;8.590;2023-03-04T03:23:17;101.38;;;34.33;;
61250;SDS011;47126;47.508;8.590;2023-03-04T03:25:44;90.57;;;33.97;;
61250;SDS011;47126;47.508;8.590;2023-03-04T03:28:10;95.90;;;34.30;;
61250;SDS011;47126;47.508;8.590;2023-03-04T03:30:36;103.50;;;33.60;;
61250;SDS011;47126;47.508;8.590;2023-03-04T03:33:02;98.20;;;33.63;;
61250;SDS011;47126;47.508;8.590;2023-03-04T03:35:28;106.22;;;36.55;;
61250;SDS011;47126;47.508;8.590;2023-03-04T03:37:55;99.20;;;33.65;;
61250;SDS011;47126;47.508;8.590;2023-03-04T03:40:21;99.95;;;33.70;;
61250;SDS011;47126;47.508;8.590;2023-03-04T03:42:47;99.30;;;34.45;;
61250;SDS011;47126;47.508;8.590;2023-03-04T03:45:13;105.85;;;34.40;;
61250;SDS011;47126;47.508;8.590;2023-03-04T03:47:39;98.82;;;32.33;;
61250;SDS011;47126;47.508;8.590;2023-03-04T03:50:06;88.65;;;32.80;;
61250;SDS011;47126;47.508;8.590;2023-03-04T03:52:32;95.72;;;34.45;;
61250;SDS011;47126;47.508;8.590;2023-03-04T03:54:58;101.35;;;34.28;;
61250;SDS011;47126;47.508;8.590;2023-03-04T03:57:26;94.07;;;34.85;;
61250;SDS011;47126;47.508;8.590;2023-03-04T03:59:52;96.32;;;32.35;;
61250;SDS011;47126;47.508;8.590;2023-03-04T04:02:18;95.40;;;34.28;;
61250;SDS011;47126;47.508;8.590;2023-03-04T04:04:44;97.38;;;35.72;;
61250;SDS011;47126;47.508;8.590;2023-03-04T04:07:09;110.80;;;37.00;;
61250;SDS011;47126;47.508;8.590;2023-03-04T04:09:35;93.25;;;32.75;;
61250;SDS011;47126;47.508;8.590;2023-03-04T04:12:03;102.55;;;34.67;;
61250;SDS011;47126;47.508;8.590;2023-03-04T04:14:29;101.03;;;34.00;;
61250;SDS011;47126;47.508;8.590;2023-03-04T04:16:55;108.40;;;35.42;;
61250;SDS011;47126;47.508;8.590;2023-03-04T04:19:21;110.13;;;37.90;;
61250;SDS011;47126;47.508;8.590;2023-03-04T04:21:47;100.05;;;36.03;;
61250;SDS011;47126;47.508;8.590;2023-03-04T04:24:13;97.07;;;35.78;;
61250;SDS011;47126;47.508;8.590;2023-03-04T04:26:39;92.60;;;34.00;;
61250;SDS011;47126;47.508;8.590;2023-03-04T04:29:06;103.93;;;36.53;;
61250;SDS011;47126;47.508;8.590;2023-03-04T04:31:32;103.82;;;36.03;;
61250;SDS011;47126;47.508;8.590;2023-03-04T04:33:58;103.35;;;34.22;;
61250;SDS011;47126;47.508;8.590;2023-03-04T04:36:24;110.50;;;35.60;;
61250;SDS011;47126;47.508;8.590;2023-03-04T04:38:50;101.90;;;34.72;;
61250;SDS011;47126;47.508;8.590;2023-03-04T04:41:18;108.63;;;35.97;;
61250;SDS011;47126;47.508;8.590;2023-03-04T04:43:44;110.38;;;37.20;;
61250;SDS011;47126;47.508;8.590;2023-03-04T04:46:10;101.78;;;34.67;;
61250;SDS011;47126;47.508;8.590;2023-03-04T04:48:36;105.00;;;36.53;;
61250;SDS011;47126;47.508;8.590;2023-03-04T04:51:02;102.95;;;36.58;;
61250;SDS011;47126;47.508;8.590;2023-03-04T04:53:28;115.00;;;37.95;;
61250;SDS011;47126;47.508;8.590;2023-03-04T04:55:54;123.30;;;40.00;;
61250;SDS011;47126;47.508;8.590;2023-03-04T04:58:20;116.22;;;38.63;;
61250;SDS011;47126;47.508;8.590;2023-03-04T05:00:47;110.68;;;36.97;;
61250;SDS011;47126;47.508;8.590;2023-03-04T05:03:13;107.88;;;37.78;;
61250;SDS011;47126;47.508;8.590;2023-03-04T05:05:39;111.70;;;39.17;;
61250;SDS011;47126;47.508;8.590;2023-03-04T05:08:05;103.65;;;37.08;;
61250;SDS011;47126;47.508;8.590;2023-03-04T05:10:31;101.82;;;35.70;;
61250;SDS011;47126;47.508;8.590;2023-03-04T05:12:57;108.40;;;37.63;;
61250;SDS011;47126;47.508;8.590;2023-03-04T05:15:23;109.82;;;39.38;;
61250;SDS011;47126;47.508;8.590;2023-03-04T05:17:49;116.78;;;41.47;;
61250;SDS011;47126;47.508;8.590;2023-03-04T05:20:15;118.93;;;39.67;;
61250;SDS011;47126;47.508;8.590;2023-03-04T05:22:41;119.20;;;39.25;;
61250;SDS011;47126;47.508;8.590;2023-03-04T05:25:07;112.50;;;39.13;;
61250;SDS011;47126;47.508;8.590;2023-03-04T05:27:33;101.65;;;34.60;;
61250;SDS011;47126;47.508;8.590;2023-03-04T05:29:59;107.80;;;35.08;;
61250;SDS011;47126;47.508;8.590;2023-03-04T05:32:25;105.57;;;34.85;;
61250;SDS011;47126;47.508;8.590;2023-03-04T05:34:53;98.57;;;35.47;;
61250;SDS011;47126;47.508;8.590;2023-03-04T05:37:19;102.13;;;34.33;;
61250;SDS011;47126;47.508;8.590;2023-03-04T05:39:45;102.30;;;35.73;;
61250;SDS011;47126;47.508;8.590;2023-03-04T05:42:11;110.43;;;37.70;;
61250;SDS011;47126;47.508;8.590;2023-03-04T05:44:37;99.27;;;38.10;;
61250;SDS011;47126;47.508;8.590;2023-03-04T05:47:03;115.38;;;37.13;;
61250;SDS011;47126;47.508;8.590;2023-03-04T05:49:32;109.35;;;39.13;;
61250;SDS011;47126;47.508;8.590;2023-03-04T05:51:58;109.97;;;41.43;;
61250;SDS011;47126;47.508;8.590;2023-03-04T05:54:24;124.50;;;39.25;;
61250;SDS011;47126;47.508;8.590;2023-03-04T05:56:51;105.85;;;36.85;;
61250;SDS011;47126;47.508;8.590;2023-03-04T05:59:18;106.88;;;34.38;;
61250;SDS011;47126;47.508;8.590;2023-03-04T06:01:45;100.32;;;35.88;;
61250;SDS011;47126;47.508;8.590;2023-03-04T06:04:11;97.93;;;36.13;;
61250;SDS011;47126;47.508;8.590;2023-03-04T06:06:37;113.35;;;37.20;;
61250;SDS011;47126;47.508;8.590;2023-03-04T06:09:03;110.38;;;38.30;;
61250;SDS011;47126;47.508;8.590;2023-03-04T06:11:29;105.85;;;37.97;;
61250;SDS011;47126;47.508;8.590;2023-03-04T06:13:55;112.20;;;38.47;;
61250;SDS011;47126;47.508;8.590;2023-03-04T06:16:21;115.43;;;41.63;;
61250;SDS011;47126;47.508;8.590;2023-03-04T06:18:47;102.72;;;37.00;;
61250;SDS011;47126;47.508;8.590;2023-03-04T06:21:13;108.15;;;39.95;;
61250;SDS011;47126;47.508;8.590;2023-03-04T06:23:39;109.72;;;37.33;;
61250;SDS011;47126;47.508;8.590;2023-03-04T06:26:06;104.30;;;36.37;;
61250;SDS011;47126;47.508;8.590;2023-03-04T06:28:36;102.07;;;38.43;;
61250;SDS011;47126;47.508;8.590;2023-03-04T06:31:02;105.80;;;38.70;;
61250;SDS011;47126;47.508;8.590;2023-03-04T06:33:28;112.03;;;40.23;;
61250;SDS011;47126;47.508;8.590;2023-03-04T06:35:55;103.80;;;37.25;;
61250;SDS011;47126;47.508;8.590;2023-03-04T06:38:21;116.67;;;41.90;;
61250;SDS011;47126;47.508;8.590;2023-03-04T06:40:47;113.40;;;40.67;;
61250;SDS011;47126;47.508;8.590;2023-03-04T06:43:13;103.18;;;38.80;;
61250;SDS011;47126;47.508;8.590;2023-03-04T06:45:39;121.07;;;41.08;;
61250;SDS011;47126;47.508;8.590;2023-03-04T06:48:05;121.47;;;43.33;;
61250;SDS011;47126;47.508;8.590;2023-03-04T06:50:31;137.87;;;44.83;;
61250;SDS011;47126;47.508;8.590;2023-03-04T06:52:57;129.63;;;43.63;;
61250;SDS011;47126;47.508;8.590;2023-03-04T06:55:23;135.35;;;46.60;;
61250;SDS011;47126;47.508;8.590;2023-03-04T06:57:50;110.25;;;41.38;;
61250;SDS011;47126;47.508;8.590;2023-03-04T07:00:16;112.97;;;40.75;;
61250;SDS011;47126;47.508;8.590;2023-03-04T07:02:43;123.07;;;43.10;;
61250;SDS011;47126;47.508;8.590;2023-03-04T07:05:10;128.18;;;45.72;;
61250;SDS011;47126;47.508;8.590;2023-03-04T07:07:36;118.88;;;42.42;;
61250;SDS011;47126;47.508;8.590;2023-03-04T07:10:02;118.35;;;45.25;;
61250;SDS011;47126;47.508;8.590;2023-03-04T07:12:28;125.80;;;49.78;;
61250;SDS011;47126;47.508;8.590;2023-03-04T07:14:54;130.02;;;49.83;;
61250;SDS011;47126;47.508;8.590;2023-03-04T07:17:21;155.07;;;55.88;;
61250;SDS011;47126;47.508;8.590;2023-03-04T07:19:47;137.93;;;50.92;;
61250;SDS011;47126;47.508;8.590;2023-03-04T07:22:13;142.23;;;53.58;;
61250;SDS011;47126;47.508;8.590;2023-03-04T07:24:39;141.93;;;55.00;;
61250;SDS011;47126;47.508;8.590;2023-03-04T07:27:05;139.52;;;56.85;;
61250;SDS011;47126;47.508;8.590;2023-03-04T07:29:31;138.68;;;56.85;;
61250;SDS011;47126;47.508;8.590;2023-03-04T07:31:57;113.47;;;46.60;;
61250;SDS011;47126;47.508;8.590;2023-03-04T07:34:23;108.10;;;42.00;;
61250;SDS011;47126;47.508;8.590;2023-03-04T07:36:49;109.15;;;41.58;;
61250;SDS011;47126;47.508;8.590;2023-03-04T07:39:15;97.72;;;40.08;;
61250;SDS011;47126;47.508;8.590;2023-03-04T07:41:41;105.93;;;45.00;;
61250;SDS011;47126;47.508;8.590;2023-03-04T07:44:07;115.00;;;44.42;;
61250;SDS011;47126;47.508;8.590;2023-03-04T07:46:33;109.05;;;43.35;;
61250;SDS011;47126;47.508;8.590;2023-03-04T07:48:59;111.75;;;44.08;;
61250;SDS011;47126;47.508;8.590;2023-03-04T07:51:26;112.20;;;44.33;;
61250;SDS011;47126;47.508;8.590;2023-03-04T07:53:53;102.70;;;43.50;;
61250;SDS011;47126;47.508;8.590;2023-03-04T07:56:21;103.65;;;42.50;;
61250;SDS011;47126;47.508;8.590;2023-03-04T07:58:48;100.78;;;43.63;;
61250;SDS011;47126;47.508;8.590;2023-03-04T08:01:18;103.03;;;43.20;;
61250;SDS011;47126;47.508;8.590;2023-03-04T08:03:44;94.63;;;43.17;;
61250;SDS011;47126;47.508;8.590;2023-03-04T08:06:12;101.20;;;45.30;;
61250;SDS011;47126;47.508;8.590;2023-03-04T08:08:38;91.80;;;42.85;;
61250;SDS011;47126;47.508;8.590;2023-03-04T08:11:05;95.63;;;40.63;;
61250;SDS011;47126;47.508;8.590;2023-03-04T08:13:31;89.07;;;39.50;;
61250;SDS011;47126;47.508;8.590;2023-03-04T08:15:57;77.93;;;36.78;;
61250;SDS011;47126;47.508;8.590;2023-03-04T08:18:24;81.75;;;38.13;;
61250;SDS011;47126;47.508;8.590;2023-03-04T08:20:50;74.85;;;37.55;;
61250;SDS011;47126;47.508;8.590;2023-03-04T08:23:16;81.03;;;39.45;;
61250;SDS011;47126;47.508;8.590;2023-03-04T08:25:42;71.90;;;36.13;;
61250;SDS011;47126;47.508;8.590;2023-03-04T08:28:09;75.13;;;35.10;;
61250;SDS011;47126;47.508;8.590;2023-03-04T08:30:37;80.30;;;36.92;;
61250;SDS011;47126;47.508;8.590;2023-03-04T08:33:03;77.70;;;37.13;;
61250;SDS011;47126;47.508;8.590;2023-03-04T08:35:29;78.20;;;36.58;;
61250;SDS011;47126;47.508;8.590;2023-03-04T08:37:55;77.32;;;35.25;;
61250;SDS011;47126;47.508;8.590;2023-03-04T08:40:21;71.25;;;35.83;;
61250;SDS011;47126;47.508;8.590;2023-03-04T08:42:50;69.22;;;35.22;;
61250;SDS011;47126;47.508;8.590;2023-03-04T08:45:16;74.78;;;36.72;;
61250;SDS011;47126;47.508;8.590;2023-03-04T08:47:42;76.05;;;37.28;;
61250;SDS011;47126;47.508;8.590;2023-03-04T08:50:09;75.82;;;37.95;;
61250;SDS011;47126;47.508;8.590;2023-03-04T08:52:35;73.18;;;35.95;;
61250;SDS011;47126;47.508;8.590;2023-03-04T08:55:02;67.75;;;34.92;;
61250;SDS011;47126;47.508;8.590;2023-03-04T08:57:28;72.68;;;37.08;;
61250;SDS011;47126;47.508;8.590;2023-03-04T08:59:54;71.70;;;36.53;;
61250;SDS011;47126;47.508;8.590;2023-03-04T09:02:20;69.00;;;34.72;;
61250;SDS011;47126;47.508;8.590;2023-03-04T09:04:46;72.45;;;37.38;;
61250;SDS011;47126;47.508;8.590;2023-03-04T09:07:12;72.82;;;36.00;;
61250;SDS011;47126;47.508;8.590;2023-03-04T09:09:38;79.22;;;39.47;;
61250;SDS011;47126;47.508;8.590;2023-03-04T09:12:04;73.45;;;36.72;;
61250;SDS011;47126;47.508;8.590;2023-03-04T09:14:30;73.40;;;37.35;;
61250;SDS011;47126;47.508;8.590;2023-03-04T09:16:59;75.78;;;37.58;;
61250;SDS011;47126;47.508;8.590;2023-03-04T09:19:25;70.97;;;37.60;;
61250;SDS011;47126;47.508;8.590;2023-03-04T09:21:52;71.82;;;36.80;;
61250;SDS011;47126;47.508;8.590;2023-03-04T09:24:19;72.43;;;37.35;;
61250;SDS011;47126;47.508;8.590;2023-03-04T09:26:48;78.60;;;36.90;;
61250;SDS011;47126;47.508;8.590;2023-03-04T09:29:14;73.88;;;37.05;;
61250;SDS011;47126;47.508;8.590;2023-03-04T09:31:40;75.65;;;37.60;;
61250;SDS011;47126;47.508;8.590;2023-03-04T09:34:06;74.43;;;37.70;;
61250;SDS011;47126;47.508;8.590;2023-03-04T09:36:33;78.15;;;39.60;;
61250;SDS011;47126;47.508;8.590;2023-03-04T09:39:02;80.65;;;39.45;;
61250;SDS011;47126;47.508;8.590;2023-03-04T09:41:35;80.30;;;40.10;;
61250;SDS011;47126;47.508;8.590;2023-03-04T09:44:04;81.22;;;39.80;;
61250;SDS011;47126;47.508;8.590;2023-03-04T09:46:33;75.78;;;38.55;;
61250;SDS011;47126;47.508;8.590;2023-03-04T09:49:00;77.13;;;38.78;;
61250;SDS011;47126;47.508;8.590;2023-03-04T09:56:27;90.15;;;41.88;;
61250;SDS011;47126;47.508;8.590;2023-03-04T10:01:25;102.50;;;50.25;;
61250;SDS011;47126;47.508;8.590;2023-03-04T10:03:54;85.22;;;43.17;;
61250;SDS011;47126;47.508;8.590;2023-03-04T10:06:22;85.45;;;40.50;;
61250;SDS011;47126;47.508;8.590;2023-03-04T10:08:56;89.03;;;40.17;;
61250;SDS011;47126;47.508;8.590;2023-03-04T10:16:44;76.18;;;38.40;;
61250;SDS011;47126;47.508;8.590;2023-03-04T10:21:45;80.40;;;40.58;;
61250;SDS011;47126;47.508;8.590;2023-03-04T10:24:14;75.47;;;37.63;;
61250;SDS011;47126;47.508;8.590;2023-03-04T10:26:42;77.30;;;38.80;;
61250;SDS011;47126;47.508;8.590;2023-03-04T10:29:13;78.65;;;38.90;;
61250;SDS011;47126;47.508;8.590;2023-03-04T10:34:08;79.35;;;36.83;;
61250;SDS011;47126;47.508;8.590;2023-03-04T10:41:44;76.30;;;37.20;;
61250;SDS011;47126;47.508;8.590;2023-03-04T10:44:16;76.78;;;38.55;;
61250;SDS011;47126;47.508;8.590;2023-03-04T10:46:44;76.03;;;38.80;;
61250;SDS011;47126;47.508;8.590;2023-03-04T10:49:11;84.25;;;39.00;;
61250;SDS011;47126;47.508;8.590;2023-03-04T10:51:48;77.85;;;38.90;;
61250;SDS011;47126;47.508;8.590;2023-03-04T10:56:42;81.15;;;40.70;;
61250;SDS011;47126;47.508;8.590;2023-03-04T10:59:27;85.07;;;40.00;;
61250;SDS011;47126;47.508;8.590;2023-03-04T11:01:55;86.88;;;40.08;;
61250;SDS011;47126;47.508;8.590;2023-03-04T11:04:22;83.55;;;39.65;;
61250;SDS011;47126;47.508;8.590;2023-03-04T11:06:49;79.50;;;39.97;;
61250;SDS011;47126;47.508;8.590;2023-03-04T11:09:20;81.18;;;40.42;;
61250;SDS011;47126;47.508;8.590;2023-03-04T11:11:46;79.00;;;39.85;;
61250;SDS011;47126;47.508;8.590;2023-03-04T11:16:40;81.47;;;41.03;;
61250;SDS011;47126;47.508;8.590;2023-03-04T11:19:16;83.45;;;39.65;;
61250;SDS011;47126;47.508;8.590;2023-03-04T11:21:43;81.70;;;40.58;;
61250;SDS011;47126;47.508;8.590;2023-03-04T11:24:13;86.43;;;41.83;;
61250;SDS011;47126;47.508;8.590;2023-03-04T11:26:42;86.00;;;41.75;;
61250;SDS011;47126;47.508;8.590;2023-03-04T11:29:21;88.18;;;42.30;;
61250;SDS011;47126;47.508;8.590;2023-03-04T11:31:52;79.05;;;41.28;;
61250;SDS011;47126;47.508;8.590;2023-03-04T11:42:02;80.18;;;39.47;;
61250;SDS011;47126;47.508;8.590;2023-03-04T11:44:30;84.28;;;42.13;;
61250;SDS011;47126;47.508;8.590;2023-03-04T11:47:05;85.30;;;42.85;;
61250;SDS011;47126;47.508;8.590;2023-03-04T11:49:46;79.30;;;40.67;;
61250;SDS011;47126;47.508;8.590;2023-03-04T11:52:21;86.43;;;41.10;;
61250;SDS011;47126;47.508;8.590;2023-03-04T12:05:42;85.00;;;42.22;;
61250;SDS011;47126;47.508;8.590;2023-03-04T12:08:13;83.07;;;41.97;;
61250;SDS011;47126;47.508;8.590;2023-03-04T12:10:54;77.53;;;40.50;;
61250;SDS011;47126;47.508;8.590;2023-03-04T12:13:41;81.47;;;41.72;;
61250;SDS011;47126;47.508;8.590;2023-03-04T12:16:22;83.68;;;41.97;;
61250;SDS011;47126;47.508;8.590;2023-03-04T12:26:41;79.20;;;39.63;;
61250;SDS011;47126;47.508;8.590;2023-03-04T12:31:46;77.00;;;40.45;;
61250;SDS011;47126;47.508;8.590;2023-03-04T12:34:24;77.38;;;39.97;;
61250;SDS011;47126;47.508;8.590;2023-03-04T12:39:40;71.15;;;38.67;;
61250;SDS011;47126;47.508;8.590;2023-03-04T12:44:43;68.47;;;36.35;;
61250;SDS011;47126;47.508;8.590;2023-03-04T12:47:22;71.43;;;36.33;;
61250;SDS011;47126;47.508;8.590;2023-03-04T12:52:45;75.13;;;37.63;;
61250;SDS011;47126;47.508;8.590;2023-03-04T12:55:16;70.78;;;35.50;;
61250;SDS011;47126;47.508;8.590;2023-03-04T12:57:43;77.18;;;36.17;;
61250;SDS011;47126;47.508;8.590;2023-03-04T13:03:02;69.07;;;34.63;;
61250;SDS011;47126;47.508;8.590;2023-03-04T13:08:25;64.10;;;33.08;;
61250;SDS011;47126;47.508;8.590;2023-03-04T13:10:53;67.05;;;33.08;;
61250;SDS011;47126;47.508;8.590;2023-03-04T13:13:36;66.45;;;32.28;;
61250;SDS011;47126;47.508;8.590;2023-03-04T13:16:03;60.22;;;30.75;;
61250;SDS011;47126;47.508;8.590;2023-03-04T13:18:31;65.72;;;34.58;;
61250;SDS011;47126;47.508;8.590;2023-03-04T13:21:30;62.67;;;32.70;;
61250;SDS011;47126;47.508;8.590;2023-03-04T13:23:50;64.72;;;34.80;;
61250;SDS011;47126;47.508;8.590;2023-03-04T13:26:23;64.03;;;34.58;;
61250;SDS011;47126;47.508;8.590;2023-03-04T13:28:54;60.13;;;31.70;;
61250;SDS011;47126;47.508;8.590;2023-03-04T13:31:21;62.13;;;32.08;;
61250;SDS011;47126;47.508;8.590;2023-03-04T13:33:51;55.70;;;29.60;;
61250;SDS011;47126;47.508;8.590;2023-03-04T13:38:57;69.07;;;32.47;;
61250;SDS011;47126;47.508;8.590;2023-03-04T13:46:55;58.97;;;30.85;;
61250;SDS011;47126;47.508;8.590;2023-03-04T13:49:21;61.30;;;31.25;;
61250;SDS011;47126;47.508;8.590;2023-03-04T13:51:49;60.08;;;29.98;;
61250;SDS011;47126;47.508;8.590;2023-03-04T13:54:16;63.20;;;28.08;;
61250;SDS011;47126;47.508;8.590;2023-03-04T13:56:48;57.80;;;27.52;;
61250;SDS011;47126;47.508;8.590;2023-03-04T14:02:15;58.60;;;29.80;;
61250;SDS011;47126;47.508;8.590;2023-03-04T14:07:29;61.10;;;29.83;;
61250;SDS011;47126;47.508;8.590;2023-03-04T14:12:52;61.67;;;30.10;;
61250;SDS011;47126;47.508;8.590;2023-03-04T14:15:37;57.95;;;31.02;;
61250;SDS011;47126;47.508;8.590;2023-03-04T14:18:03;53.65;;;28.27;;
61250;SDS011;47126;47.508;8.590;2023-03-04T14:20:37;55.72;;;28.75;;
61250;SDS011;47126;47.508;8.590;2023-03-04T14:23:06;59.28;;;31.00;;
61250;SDS011;47126;47.508;8.590;2023-03-04T14:25:47;56.53;;;27.63;;
61250;SDS011;47126;47.508;8.590;2023-03-04T14:28:14;56.95;;;28.00;;
61250;SDS011;47126;47.508;8.590;2023-03-04T14:30:41;53.08;;;29.65;;
61250;SDS011;47126;47.508;8.590;2023-03-04T14:33:08;53.80;;;28.25;;
61250;SDS011;47126;47.508;8.590;2023-03-04T14:35:34;59.80;;;29.80;;
61250;SDS011;47126;47.508;8.590;2023-03-04T14:40:47;55.70;;;29.42;;
61250;SDS011;47126;47.508;8.590;2023-03-04T14:43:20;61.78;;;30.17;;
61250;SDS011;47126;47.508;8.590;2023-03-04T14:45:48;60.70;;;28.80;;
61250;SDS011;47126;47.508;8.590;2023-03-04T14:48:16;56.65;;;29.27;;
61250;SDS011;47126;47.508;8.590;2023-03-04T14:50:48;60.35;;;29.13;;
61250;SDS011;47126;47.508;8.590;2023-03-04T14:53:15;64.80;;;30.63;;
61250;SDS011;47126;47.508;8.590;2023-03-04T14:55:55;57.88;;;29.38;;
61250;SDS011;47126;47.508;8.590;2023-03-04T14:58:23;57.78;;;28.63;;
61250;SDS011;47126;47.508;8.590;2023-03-04T15:01:36;59.80;;;28.83;;
61250;SDS011;47126;47.508;8.590;2023-03-04T15:03:37;54.63;;;29.20;;
61250;SDS011;47126;47.508;8.590;2023-03-04T15:06:13;56.40;;;27.90;;
61250;SDS011;47126;47.508;8.590;2023-03-04T15:08:40;53.30;;;26.98;;
61250;SDS011;47126;47.508;8.590;2023-03-04T15:11:07;57.63;;;28.05;;
61250;SDS011;47126;47.508;8.590;2023-03-04T15:13:42;56.22;;;27.85;;
61250;SDS011;47126;47.508;8.590;2023-03-04T15:16:09;57.10;;;27.90;;
61250;SDS011;47126;47.508;8.590;2023-03-04T15:18:35;54.10;;;26.75;;
61250;SDS011;47126;47.508;8.590;2023-03-04T15:21:03;55.63;;;27.88;;
61250;SDS011;47126;47.508;8.590;2023-03-04T15:23:30;53.53;;;27.30;;
61250;SDS011;47126;47.508;8.590;2023-03-04T15:25:57;54.03;;;28.83;;
61250;SDS011;47126;47.508;8.590;2023-03-04T15:28:23;55.67;;;29.33;;
61250;SDS011;47126;47.508;8.590;2023-03-04T15:30:50;51.90;;;27.52;;
61250;SDS011;47126;47.508;8.590;2023-03-04T15:33:16;58.13;;;29.40;;
61250;SDS011;47126;47.508;8.590;2023-03-04T15:35:48;66.75;;;26.95;;
61250;SDS011;47126;47.508;8.590;2023-03-04T15:38:16;51.97;;;27.02;;
61250;SDS011;47126;47.508;8.590;2023-03-04T15:40:42;54.92;;;27.75;;
61250;SDS011;47126;47.508;8.590;2023-03-04T15:43:16;53.88;;;28.55;;
61250;SDS011;47126;47.508;8.590;2023-03-04T15:45:42;63.28;;;30.95;;
61250;SDS011;47126;47.508;8.590;2023-03-04T15:48:10;64.82;;;31.92;;
61250;SDS011;47126;47.508;8.590;2023-03-04T15:50:36;67.45;;;34.08;;
61250;SDS011;47126;47.508;8.590;2023-03-04T15:53:05;64.78;;;33.58;;